createdAt,value
2022-09-18T00:01:12.387Z,1.00
2022-09-18T00:03:41.966Z,0.00
2022-09-18T00:06:12.482Z,0.67
2022-09-18T00:08:40.379Z,1.67
2022-09-18T00:11:10.085Z,1.67
2022-09-18T00:13:39.026Z,1.00
2022-09-18T00:16:09.394Z,1.00
2022-09-18T00:18:36.879Z,1.00
2022-09-18T00:21:08.062Z,0.33
2022-09-18T00:23:36.176Z,0.00
2022-09-18T00:26:03.950Z,0.00
2022-09-18T00:28:31.662Z,0.00
2022-09-18T00:31:04.573Z,1.25
2022-09-18T00:33:32.481Z,0.00
2022-09-18T00:36:01.721Z,1.00
2022-09-18T00:38:31.828Z,1.00
2022-09-18T00:40:59.677Z,0.00
2022-09-18T00:43:30.184Z,1.00
2022-09-18T00:46:01.517Z,0.00
2022-09-18T00:48:39.938Z,1.00
2022-09-18T00:51:06.935Z,0.00
2022-09-18T00:53:41.820Z,0.00
2022-09-18T00:56:14.656Z,1.00
2022-09-18T00:58:42.781Z,1.00
2022-09-18T01:01:09.981Z,1.00
2022-09-18T01:03:36.869Z,0.00
2022-09-18T01:06:14.769Z,0.67
2022-09-18T01:09:07.571Z,1.33
2022-09-18T01:11:48.126Z,2.00
2022-09-18T01:14:30.518Z,1.00
2022-09-18T01:17:09.834Z,0.33
2022-09-18T01:20:01.975Z,0.67
2022-09-18T01:22:54.106Z,1.00
2022-09-18T01:25:38.460Z,1.00
2022-09-18T01:28:20.752Z,0.00
2022-09-18T01:30:52.401Z,0.67
2022-09-18T01:33:30.828Z,1.33
2022-09-18T01:36:06.437Z,2.00
2022-09-18T01:38:40.301Z,0.00
2022-09-18T01:41:14.404Z,1.00
2022-09-18T01:43:47.095Z,0.00
2022-09-18T01:46:19.020Z,1.00
2022-09-18T01:48:55.453Z,1.00
2022-09-18T01:51:30.834Z,1.00
2022-09-18T01:54:06.694Z,1.00
2022-09-18T01:56:42.049Z,1.00
2022-09-18T01:59:18.805Z,1.00
2022-09-18T02:01:57.452Z,0.33
2022-09-18T02:04:30.393Z,0.00
2022-09-18T02:07:07.466Z,2.00
2022-09-18T02:09:35.421Z,1.75
2022-09-18T02:12:07.560Z,1.00
2022-09-18T02:14:42.557Z,1.67
2022-09-18T02:17:34.875Z,1.00
2022-09-18T02:20:11.530Z,0.67
2022-09-18T02:22:44.431Z,1.00
2022-09-18T02:25:18.506Z,1.00
2022-09-18T02:27:49.123Z,1.00
2022-09-18T02:30:18.024Z,1.00
2022-09-18T02:32:44.841Z,0.67
2022-09-18T02:35:13.490Z,1.00
2022-09-18T02:37:56.680Z,1.67
2022-09-18T02:40:42.486Z,1.00
2022-09-18T02:43:31.026Z,1.00
2022-09-18T02:46:12.932Z,1.00
2022-09-18T02:48:56.511Z,1.00
2022-09-18T02:51:34.716Z,1.00
2022-09-18T02:54:08.259Z,1.00
2022-09-18T02:56:42.469Z,2.00
2022-09-18T02:59:17.747Z,1.00
2022-09-18T03:01:55.156Z,1.00
2022-09-18T03:04:25.607Z,2.00
2022-09-18T03:07:17.871Z,1.00
2022-09-18T03:09:50.990Z,1.00
2022-09-18T03:12:18.040Z,1.50
2022-09-18T03:14:47.943Z,1.75
2022-09-18T03:17:16.191Z,1.00
2022-09-18T03:19:44.878Z,2.00
2022-09-18T03:22:13.533Z,1.25
2022-09-18T03:24:41.804Z,1.25
2022-09-18T03:27:08.556Z,1.00
2022-09-18T03:29:36.070Z,1.00
2022-09-18T03:32:03.794Z,1.00
2022-09-18T03:34:40.009Z,2.00
2022-09-18T03:37:07.237Z,1.50
2022-09-18T03:39:34.572Z,0.75
2022-09-18T03:42:02.663Z,1.75
2022-09-18T03:44:31.739Z,2.00
2022-09-18T03:47:03.463Z,1.00
2022-09-18T03:49:30.955Z,1.25
2022-09-18T03:51:58.990Z,2.00
2022-09-18T03:54:30.477Z,2.00
2022-09-18T03:57:13.214Z,1.00
2022-09-18T03:59:53.411Z,1.25
2022-09-18T04:02:38.884Z,2.00
2022-09-18T04:05:24.934Z,2.00
2022-09-18T04:08:15.920Z,1.00
2022-09-18T04:11:01.237Z,1.00
2022-09-18T04:13:27.993Z,2.00
2022-09-18T04:16:01.897Z,1.00
2022-09-18T04:18:29.381Z,2.00
2022-09-18T04:20:57.435Z,1.75
2022-09-18T04:23:25.643Z,2.00
2022-09-18T04:25:52.741Z,1.00
2022-09-18T04:28:19.696Z,1.75
2022-09-18T04:30:48.381Z,2.00
2022-09-18T04:33:16.227Z,1.25
2022-09-18T04:35:43.503Z,1.00
2022-09-18T04:38:10.865Z,1.00
2022-09-18T04:40:39.212Z,1.00
2022-09-18T04:43:05.977Z,1.00
2022-09-18T04:45:32.763Z,2.25
2022-09-18T04:47:59.722Z,10.25
2022-09-18T04:50:28.113Z,12.75
2022-09-18T04:53:11.634Z,3.50
2022-09-18T04:55:42.881Z,0.33
2022-09-18T04:58:10.299Z,1.00
2022-09-18T05:00:37.541Z,1.00
2022-09-18T05:03:05.006Z,1.00
2022-09-18T05:05:34.663Z,1.33
2022-09-18T05:08:02.821Z,0.33
2022-09-18T05:10:30.547Z,2.00
2022-09-18T05:12:58.806Z,2.00
2022-09-18T05:15:27.509Z,6.25
2022-09-18T05:18:07.730Z,15.00
2022-09-18T05:20:37.662Z,24.25
2022-09-18T05:23:06.977Z,29.50
2022-09-18T05:25:35.853Z,12.50
2022-09-18T05:28:04.787Z,8.00
2022-09-18T05:30:37.908Z,21.25
2022-09-18T05:33:07.665Z,8.75
2022-09-18T05:35:39.138Z,7.25
2022-09-18T05:38:06.513Z,16.25
2022-09-18T05:40:37.521Z,12.25
2022-09-18T05:43:06.389Z,31.50
2022-09-18T05:45:34.976Z,3.25
2022-09-18T05:48:07.453Z,15.00
2022-09-18T05:50:35.710Z,29.50
2022-09-18T05:53:05.422Z,31.75
2022-09-18T05:55:43.714Z,18.75
2022-09-18T05:58:14.575Z,11.00
2022-09-18T06:00:42.356Z,8.25
2022-09-18T06:03:16.110Z,8.25
2022-09-18T06:05:51.650Z,41.50
2022-09-18T06:08:18.898Z,39.00
2022-09-18T06:10:45.655Z,44.75
2022-09-18T06:13:16.381Z,47.00
2022-09-18T06:15:48.878Z,41.25
2022-09-18T06:18:20.773Z,42.25
2022-09-18T06:20:54.147Z,49.00
2022-09-18T06:23:26.826Z,50.50
2022-09-18T06:26:02.115Z,45.75
2022-09-18T06:28:33.130Z,45.00
2022-09-18T06:31:04.437Z,51.75
2022-09-18T06:33:43.839Z,39.50
2022-09-18T06:36:11.360Z,44.75
2022-09-18T06:38:44.935Z,50.00
2022-09-18T06:41:11.851Z,39.00
2022-09-18T06:43:52.276Z,41.25
2022-09-18T06:46:33.688Z,28.75
2022-09-18T06:49:13.589Z,34.75
2022-09-18T06:51:44.107Z,46.25
2022-09-18T06:54:12.284Z,47.25
2022-09-18T06:56:40.789Z,45.75
2022-09-18T06:59:11.350Z,37.00
2022-09-18T07:01:39.087Z,34.00
2022-09-18T07:04:15.672Z,21.75
2022-09-18T07:06:45.756Z,19.00
2022-09-18T07:09:14.026Z,34.75
2022-09-18T07:11:52.751Z,40.00
2022-09-18T07:14:26.126Z,28.00
2022-09-18T07:16:57.022Z,38.25
2022-09-18T07:19:23.855Z,37.00
2022-09-18T07:21:51.838Z,33.25
2022-09-18T07:24:19.190Z,31.50
2022-09-18T07:26:46.094Z,31.50
2022-09-18T07:29:12.978Z,31.75
2022-09-18T07:31:41.659Z,30.50
2022-09-18T07:34:11.804Z,32.00
2022-09-18T07:36:38.723Z,37.25
2022-09-18T07:39:05.551Z,29.50
2022-09-18T07:41:44.767Z,29.50
2022-09-18T07:44:11.987Z,28.25
2022-09-18T07:46:38.855Z,16.50
2022-09-18T07:49:09.381Z,14.50
2022-09-18T07:51:36.547Z,8.75
2022-09-18T07:54:04.725Z,4.00
2022-09-18T07:56:50.722Z,3.75
2022-09-18T07:59:21.057Z,1.00
2022-09-18T08:01:54.288Z,2.00
2022-09-18T08:04:24.888Z,1.00
2022-09-18T08:07:06.213Z,1.00
2022-09-18T08:09:51.120Z,0.33
2022-09-18T08:12:43.886Z,2.75
2022-09-18T08:15:27.486Z,2.50
2022-09-18T08:18:21.436Z,1.25
2022-09-18T08:20:58.648Z,2.00
2022-09-18T08:23:47.098Z,1.00
2022-09-18T08:26:17.672Z,2.00
2022-09-18T08:28:48.641Z,2.00
2022-09-18T08:31:16.198Z,2.00
2022-09-18T08:33:43.680Z,2.00
2022-09-18T08:36:12.418Z,2.00
2022-09-18T08:38:47.323Z,2.00
2022-09-18T08:42:11.857Z,1.00
2022-09-18T08:44:50.635Z,1.75
2022-09-18T08:47:25.262Z,1.00
2022-09-18T08:50:00.816Z,2.25
2022-09-18T08:52:37.368Z,2.00
2022-09-18T08:55:24.257Z,1.00
2022-09-18T08:58:16.927Z,1.75
2022-09-18T09:00:51.053Z,3.00
2022-09-18T09:03:45.935Z,3.50
2022-09-18T09:06:33.863Z,3.00
2022-09-18T09:09:25.891Z,4.00
2022-09-18T09:12:03.291Z,1.25
2022-09-18T09:15:21.549Z,4.00
2022-09-18T09:22:04.718Z,3.00
2022-09-18T09:24:41.560Z,2.25
2022-09-18T09:27:47.890Z,3.50
2022-09-18T09:30:35.420Z,3.00
2022-09-18T09:33:16.433Z,0.75
2022-09-18T09:36:07.966Z,3.00
2022-09-18T09:38:57.388Z,1.75
2022-09-18T09:41:36.829Z,2.75
2022-09-18T09:44:25.364Z,3.00
2022-09-18T09:47:25.224Z,3.00
2022-09-18T09:50:12.947Z,1.75
2022-09-18T09:52:44.855Z,3.25
2022-09-18T09:55:25.216Z,4.00
2022-09-18T09:58:15.388Z,3.25
2022-09-18T10:00:56.760Z,2.50
2022-09-18T10:03:36.527Z,3.00
2022-09-18T10:06:28.938Z,1.75
2022-09-18T10:12:21.200Z,2.00
2022-09-18T10:15:02.929Z,3.00
2022-09-18T10:17:38.505Z,2.50
2022-09-18T10:20:14.047Z,2.00
2022-09-18T10:22:41.389Z,3.00
2022-09-18T10:25:25.497Z,2.75
2022-09-18T10:27:53.080Z,1.75
2022-09-18T10:30:21.618Z,1.00
2022-09-18T10:32:52.747Z,1.75
2022-09-18T10:35:44.886Z,1.00
2022-09-18T10:38:33.704Z,1.50
2022-09-18T10:41:37.064Z,1.00
2022-09-18T10:44:27.538Z,1.50
2022-09-18T10:47:08.272Z,1.00
2022-09-18T10:49:49.330Z,1.00
2022-09-18T10:52:34.064Z,0.50
2022-09-18T10:55:15.920Z,2.00
2022-09-18T10:58:12.374Z,0.25
2022-09-18T11:00:51.974Z,1.00
2022-09-18T11:03:39.435Z,1.00
2022-09-18T11:06:16.151Z,0.80
2022-09-18T11:08:49.364Z,0.00
2022-09-18T11:11:27.639Z,0.00
2022-09-18T11:14:00.875Z,1.00
2022-09-18T11:16:43.764Z,1.20
2022-09-18T11:19:26.382Z,0.00
2022-09-18T11:21:57.859Z,0.60
2022-09-18T11:24:29.195Z,0.00
2022-09-18T11:27:20.842Z,0.00
2022-09-18T11:29:54.944Z,1.00
2022-09-18T11:32:29.364Z,0.00
2022-09-18T11:35:14.240Z,0.00
2022-09-18T11:37:48.725Z,0.00
2022-09-18T11:40:27.611Z,0.00
2022-09-18T11:42:57.084Z,1.00
2022-09-18T11:45:56.770Z,0.75
2022-09-18T11:48:34.291Z,0.25
2022-09-18T11:51:13.528Z,0.50
2022-09-18T11:53:45.872Z,0.00
2022-09-18T11:56:27.515Z,1.00
2022-09-18T11:59:09.509Z,0.00
2022-09-18T12:01:42.823Z,0.00
2022-09-18T12:04:19.118Z,0.00
2022-09-18T12:06:59.046Z,1.00
2022-09-18T12:09:38.823Z,1.25
2022-09-18T12:12:18.635Z,0.00
2022-09-18T12:14:56.831Z,1.00
2022-09-18T12:17:34.556Z,0.75
2022-09-18T12:20:11.663Z,0.00
2022-09-18T12:22:49.828Z,1.00
2022-09-18T12:25:24.422Z,0.25
2022-09-18T12:28:29.846Z,0.00
2022-09-18T12:31:43.150Z,0.50
2022-09-18T12:35:04.094Z,0.00
2022-09-18T12:38:19.911Z,0.25
2022-09-18T12:41:17.849Z,0.00
2022-09-18T12:44:52.714Z,0.50
2022-09-18T12:47:50.230Z,0.00
2022-09-18T12:54:17.025Z,0.00
2022-09-18T12:57:08.447Z,0.00
2022-09-18T12:59:57.887Z,0.25
2022-09-18T13:02:49.171Z,0.00
2022-09-18T13:05:27.224Z,0.75
2022-09-18T13:08:03.630Z,0.00
2022-09-18T13:10:39.660Z,0.00
2022-09-18T13:13:15.909Z,0.00
2022-09-18T13:15:51.058Z,1.50
2022-09-18T13:18:32.448Z,1.00
2022-09-18T13:21:05.424Z,2.00
2022-09-18T13:23:39.211Z,2.25
2022-09-18T13:26:14.348Z,1.00
2022-09-18T13:28:43.529Z,0.50
2022-09-18T13:31:25.648Z,1.00
2022-09-18T13:33:59.508Z,1.00
2022-09-18T13:36:32.340Z,0.00
2022-09-18T13:39:04.233Z,0.00
2022-09-18T13:41:46.210Z,1.00
2022-09-18T13:44:20.423Z,1.00
2022-09-18T13:46:50.697Z,0.50
2022-09-18T13:49:26.183Z,1.00
2022-09-18T13:51:53.164Z,0.00
2022-09-18T13:54:27.717Z,1.00
2022-09-18T13:57:32.482Z,0.75
2022-09-18T14:00:00.710Z,1.00
2022-09-18T14:02:40.672Z,0.00
2022-09-18T14:05:31.817Z,0.00
2022-09-18T14:08:09.733Z,1.00
2022-09-18T14:11:14.455Z,2.00
2022-09-18T14:13:53.619Z,1.00
2022-09-18T14:16:29.683Z,1.00
2022-09-18T14:19:26.468Z,1.00
2022-09-18T14:21:54.192Z,0.50
2022-09-18T14:24:58.474Z,1.00
2022-09-18T14:27:42.647Z,1.00
2022-09-18T14:30:19.829Z,0.50
2022-09-18T14:33:17.675Z,0.00
2022-09-18T14:35:54.499Z,1.00
2022-09-18T14:38:32.126Z,0.75
2022-09-18T14:41:12.166Z,0.25
2022-09-18T14:43:47.255Z,0.00
2022-09-18T14:46:23.219Z,0.75
2022-09-18T14:48:54.815Z,1.00
2022-09-18T14:51:25.870Z,1.00
2022-09-18T14:53:55.832Z,0.00
2022-09-18T14:56:32.762Z,0.75
2022-09-18T14:59:05.627Z,1.50
2022-09-18T15:01:39.338Z,1.00
2022-09-18T15:04:25.705Z,1.00
2022-09-18T15:10:52.298Z,0.00
2022-09-18T15:13:21.920Z,1.00
2022-09-18T15:15:59.512Z,1.50
2022-09-18T15:18:29.618Z,0.00
2022-09-18T15:20:59.733Z,1.00
2022-09-18T15:23:37.751Z,0.25
2022-09-18T15:26:12.642Z,1.00
2022-09-18T15:28:44.215Z,1.00
2022-09-18T15:31:14.756Z,1.00
2022-09-18T15:33:57.624Z,1.75
2022-09-18T15:37:18.640Z,1.00
2022-09-18T15:40:03.968Z,1.00
2022-09-18T15:42:35.228Z,1.00
2022-09-18T15:45:21.502Z,1.75
2022-09-18T15:47:53.292Z,2.00
2022-09-18T15:50:41.380Z,1.00
2022-09-18T15:53:24.348Z,1.50
2022-09-18T15:56:07.137Z,1.00
2022-09-18T15:58:51.965Z,1.00
2022-09-18T16:01:27.518Z,2.00
2022-09-18T16:04:19.693Z,1.25
2022-09-18T16:06:59.937Z,2.00
2022-09-18T16:09:40.930Z,1.00
2022-09-18T16:12:42.226Z,1.25
2022-09-18T16:15:23.442Z,3.00
2022-09-18T16:18:28.705Z,2.00
2022-09-18T16:21:02.936Z,2.00
2022-09-18T16:23:36.198Z,1.00
2022-09-18T16:26:11.465Z,1.00
2022-09-18T16:28:43.725Z,1.50
2022-09-18T16:31:13.442Z,0.25
2022-09-18T16:33:51.636Z,3.00
2022-09-18T16:36:28.581Z,1.00
2022-09-18T16:38:59.495Z,1.00
2022-09-18T16:41:28.282Z,1.75
2022-09-18T16:43:55.449Z,1.75
2022-09-18T16:46:29.988Z,3.25
2022-09-18T16:48:57.617Z,2.25
2022-09-18T16:51:24.506Z,1.00
2022-09-18T16:53:51.525Z,3.00
2022-09-18T16:56:26.650Z,1.25
2022-09-18T16:58:57.320Z,1.25
2022-09-18T17:01:24.678Z,0.00
2022-09-18T17:03:51.984Z,2.00
2022-09-18T17:06:19.104Z,1.00
2022-09-18T17:08:46.905Z,2.00
2022-09-18T17:11:13.845Z,1.50
2022-09-18T17:13:42.050Z,1.75
2022-09-18T17:16:09.092Z,1.00
2022-09-18T17:18:36.084Z,1.00
2022-09-18T17:21:04.866Z,1.00
2022-09-18T17:23:32.433Z,1.00
2022-09-18T17:26:05.330Z,2.00
2022-09-18T17:28:32.238Z,2.00
2022-09-18T17:31:06.505Z,3.00
2022-09-18T17:33:33.631Z,1.25
2022-09-18T17:36:05.770Z,2.00
2022-09-18T17:38:36.413Z,2.00
2022-09-18T17:41:07.426Z,2.00
2022-09-18T17:43:34.944Z,1.00
2022-09-18T17:46:06.301Z,2.25
2022-09-18T17:48:33.890Z,4.00
2022-09-18T17:51:04.104Z,3.00
2022-09-18T17:54:03.171Z,2.50
2022-09-18T17:56:32.199Z,4.00
2022-09-18T17:59:05.997Z,8.00
2022-09-18T18:01:38.813Z,2.25
2022-09-18T18:04:07.336Z,2.50
2022-09-18T18:06:35.511Z,1.25
2022-09-18T18:09:02.475Z,2.00
2022-09-18T18:11:29.692Z,1.25
2022-09-18T18:13:56.872Z,1.00
2022-09-18T18:16:27.664Z,0.50
2022-09-18T18:18:59.474Z,40.50
2022-09-18T18:21:29.862Z,7.50
2022-09-18T18:24:02.889Z,2.00
2022-09-18T18:26:30.585Z,2.25
2022-09-18T18:28:58.071Z,1.25
2022-09-18T18:31:27.070Z,2.00
2022-09-18T18:34:08.488Z,3.75
2022-09-18T18:36:39.831Z,2.00
2022-09-18T18:40:30.522Z,3.00
2022-09-18T18:43:44.046Z,2.00
2022-09-18T18:46:14.347Z,1.00
2022-09-18T18:48:43.740Z,2.25
2022-09-18T18:51:16.742Z,4.00
2022-09-18T18:53:44.377Z,3.00
2022-09-18T18:56:15.609Z,5.00
2022-09-18T18:58:47.646Z,3.00
2022-09-18T19:01:20.722Z,3.00
2022-09-18T19:04:05.342Z,4.00
2022-09-18T19:06:36.614Z,7.33
2022-09-18T19:09:19.287Z,17.00
2022-09-18T19:11:54.274Z,4.33
2022-09-18T19:14:28.343Z,4.33
2022-09-18T19:16:56.726Z,4.00
2022-09-18T19:19:35.701Z,4.00
2022-09-18T19:22:09.748Z,2.00
2022-09-18T19:37:28.281Z,2.00
2022-09-18T19:39:57.354Z,2.00
2022-09-18T19:42:50.412Z,1.00
2022-09-18T19:45:28.118Z,1.00
2022-09-18T19:47:56.289Z,0.75
2022-09-18T19:50:30.950Z,2.00
2022-09-18T19:53:03.792Z,1.00
2022-09-18T19:55:50.727Z,1.00
2022-09-18T19:58:34.753Z,1.67
2022-09-18T20:01:24.298Z,1.67
2022-09-18T20:29:50.749Z,1.00
2022-09-18T20:32:17.865Z,3.00
2022-09-18T20:34:47.769Z,0.67
2022-09-18T20:37:15.078Z,2.00
2022-09-18T20:39:41.921Z,1.00
2022-09-18T20:42:09.089Z,0.00
2022-09-18T20:44:36.031Z,1.33
2022-09-18T20:47:05.554Z,0.67
2022-09-18T20:49:32.779Z,1.00
2022-09-18T20:52:00.257Z,2.00
2022-09-18T20:54:27.005Z,0.33
2022-09-18T20:56:53.982Z,1.00
2022-09-18T20:59:21.020Z,1.00
2022-09-18T21:01:48.626Z,1.33
2022-09-18T21:04:20.529Z,1.00
2022-09-18T21:06:51.317Z,1.00
2022-09-18T21:09:18.240Z,0.00
2022-09-18T21:11:45.016Z,0.00
2022-09-18T21:14:14.338Z,2.00
2022-09-18T21:16:41.440Z,1.00
2022-09-18T21:19:11.330Z,1.00
2022-09-18T21:21:40.902Z,1.00
2022-09-18T21:24:08.319Z,1.00
2022-09-18T21:26:37.953Z,2.00
2022-09-18T21:29:11.496Z,0.33
2022-09-18T21:31:40.846Z,0.00
2022-09-18T21:34:08.641Z,0.00
2022-09-18T21:36:35.509Z,1.50
2022-09-18T21:39:05.053Z,1.50
2022-09-18T21:41:32.919Z,3.00
2022-09-18T21:43:59.654Z,4.75
2022-09-18T21:46:26.828Z,2.75
2022-09-18T21:48:53.585Z,5.00
2022-09-18T21:51:20.994Z,14.75
2022-09-18T21:53:47.958Z,8.50
2022-09-18T21:56:20.153Z,23.75
2022-09-18T21:58:47.859Z,14.25
2022-09-18T22:01:17.791Z,11.25
2022-09-18T22:03:47.894Z,7.00
2022-09-18T22:06:14.663Z,3.75
2022-09-18T22:08:41.512Z,20.00
2022-09-18T22:11:08.246Z,12.75
2022-09-18T22:13:36.483Z,8.50
2022-09-18T22:16:03.260Z,3.50
2022-09-18T22:18:30.142Z,6.50
2022-09-18T22:20:56.830Z,4.00
2022-09-18T22:23:23.749Z,3.50
2022-09-18T22:25:50.763Z,1.00
2022-09-18T22:28:18.174Z,2.00
2022-09-18T22:30:46.333Z,6.50
2022-09-18T22:33:13.763Z,1.25
2022-09-18T22:35:40.549Z,1.25
2022-09-18T22:38:07.514Z,1.00
2022-09-18T22:40:34.299Z,0.00
2022-09-18T22:43:01.303Z,1.00
2022-09-18T22:45:28.094Z,0.00
2022-09-18T22:47:56.353Z,0.00
2022-09-18T22:50:23.646Z,0.00
2022-09-18T22:52:50.399Z,0.00
2022-09-18T22:55:17.253Z,0.00
2022-09-18T22:57:44.011Z,0.00
2022-09-18T23:00:16.500Z,0.00
2022-09-18T23:02:43.434Z,0.00
2022-09-18T23:05:11.570Z,0.00
2022-09-18T23:07:38.991Z,0.00
2022-09-18T23:10:07.650Z,0.00
2022-09-18T23:12:34.654Z,0.00
2022-09-18T23:15:03.746Z,0.00
2022-09-18T23:17:30.710Z,1.00
2022-09-18T23:19:57.413Z,0.00
2022-09-18T23:22:25.754Z,0.00
2022-09-18T23:24:52.501Z,1.00
2022-09-18T23:27:19.305Z,0.67
2022-09-18T23:29:46.049Z,0.00
2022-09-18T23:32:12.742Z,0.00
2022-09-18T23:34:40.119Z,1.00
2022-09-18T23:37:06.833Z,1.00
2022-09-18T23:39:35.117Z,1.00
2022-09-18T23:42:03.953Z,0.00
2022-09-18T23:44:31.304Z,0.00
2022-09-18T23:46:59.097Z,0.00
2022-09-18T23:49:25.992Z,0.00
2022-09-18T23:51:54.414Z,0.00
2022-09-18T23:54:24.371Z,1.00
2022-09-18T23:56:55.071Z,0.00
2022-09-18T23:59:25.232Z,1.00
